createdAt,value
2023-09-01T00:01:04.487Z,3.92
2023-09-01T00:04:06.550Z,4.10
2023-09-01T00:07:08.544Z,4.65
2023-09-01T00:10:11.007Z,4.30
2023-09-01T00:13:12.971Z,4.20
2023-09-01T00:16:14.934Z,3.78
2023-09-01T00:19:16.815Z,4.13
2023-09-01T00:22:19.612Z,3.95
2023-09-01T00:25:21.441Z,3.97
2023-09-01T00:28:23.896Z,3.50
2023-09-01T00:31:25.806Z,3.53
2023-09-01T00:34:30.619Z,3.20
2023-09-01T00:37:32.782Z,3.20
2023-09-01T00:40:34.858Z,3.05
2023-09-01T00:43:36.900Z,2.67
2023-09-01T00:46:41.144Z,2.72
2023-09-01T00:49:48.825Z,2.25
2023-09-01T00:52:50.814Z,2.10
2023-09-01T00:55:58.532Z,2.33
2023-09-01T00:59:00.604Z,1.88
2023-09-01T01:02:03.272Z,2.00
2023-09-01T01:05:15.942Z,2.08
2023-09-01T01:08:53.675Z,1.42
2023-09-01T01:12:22.963Z,1.80
2023-09-01T01:15:26.448Z,1.58
2023-09-01T01:18:33.869Z,1.40
2023-09-01T01:21:39.409Z,1.20
2023-09-01T01:24:41.608Z,1.20
2023-09-01T01:27:44.520Z,1.10
2023-09-01T01:30:48.281Z,1.20
2023-09-01T01:34:03.444Z,1.13
2023-09-01T01:37:37.868Z,0.80
2023-09-01T01:40:41.407Z,1.13
2023-09-01T01:43:45.451Z,0.90
2023-09-01T01:46:48.909Z,0.90
2023-09-01T01:52:53.711Z,1.00
2023-09-01T01:55:55.741Z,1.10
2023-09-01T01:58:57.914Z,0.93
2023-09-01T02:02:00.237Z,0.90
2023-09-01T02:05:02.291Z,1.08
2023-09-01T02:08:07.124Z,0.95
2023-09-01T02:11:09.219Z,1.20
2023-09-01T02:14:13.425Z,0.90
2023-09-01T02:17:15.300Z,1.02
2023-09-01T02:20:18.135Z,0.82
2023-09-01T02:23:20.269Z,1.02
2023-09-01T02:26:23.754Z,0.82
2023-09-01T02:29:25.806Z,1.02
2023-09-01T02:32:27.568Z,0.90
2023-09-01T02:35:30.143Z,0.80
2023-09-01T02:38:32.100Z,0.80
2023-09-01T02:41:34.358Z,0.68
2023-09-01T02:44:36.217Z,0.80
2023-09-01T02:47:41.712Z,0.88
2023-09-01T02:50:43.751Z,1.00
2023-09-01T02:53:45.604Z,0.88
2023-09-01T02:56:47.604Z,1.00
2023-09-01T02:59:49.510Z,0.80
2023-09-01T03:02:52.265Z,1.13
2023-09-01T03:05:54.338Z,1.20
2023-09-01T03:08:57.035Z,0.98
2023-09-01T03:11:58.786Z,0.70
2023-09-01T03:15:00.823Z,0.90
2023-09-01T03:18:03.756Z,1.05
2023-09-01T03:21:13.350Z,0.90
2023-09-01T03:24:15.603Z,0.90
2023-09-01T03:27:17.839Z,0.90
2023-09-01T03:30:20.521Z,1.27
2023-09-01T03:33:23.159Z,1.30
2023-09-01T03:36:25.583Z,1.48
2023-09-01T03:39:27.628Z,1.30
2023-09-01T03:42:29.516Z,1.10
2023-09-01T03:45:31.304Z,1.80
2023-09-01T03:48:33.435Z,1.50
2023-09-01T03:51:35.745Z,1.45
2023-09-01T03:54:37.545Z,1.70
2023-09-01T03:57:40.367Z,1.55
2023-09-01T04:00:42.240Z,1.65
2023-09-01T04:03:45.990Z,1.48
2023-09-01T04:06:48.077Z,1.88
2023-09-01T04:09:50.040Z,1.77
2023-09-01T04:12:52.020Z,1.45
2023-09-01T04:15:53.935Z,1.90
2023-09-01T04:18:56.331Z,1.85
2023-09-01T04:21:58.362Z,1.67
2023-09-01T04:25:00.551Z,1.77
2023-09-01T04:28:02.572Z,1.83
2023-09-01T04:31:28.183Z,2.00
2023-09-01T04:34:30.914Z,1.70
2023-09-01T04:37:32.907Z,2.00
2023-09-01T04:40:35.715Z,2.00
2023-09-01T04:43:37.488Z,1.83
2023-09-01T04:46:39.494Z,2.00
2023-09-01T04:49:41.518Z,1.95
2023-09-01T04:52:43.717Z,2.45
2023-09-01T04:55:45.647Z,2.15
2023-09-01T04:58:47.493Z,2.60
2023-09-01T05:01:50.560Z,2.55
2023-09-01T05:04:53.041Z,2.40
2023-09-01T05:07:57.941Z,2.83
2023-09-01T05:10:59.722Z,2.67
2023-09-01T05:14:01.584Z,3.20
2023-09-01T05:17:03.715Z,3.13
2023-09-01T05:20:10.845Z,3.28
2023-09-01T05:23:12.943Z,3.10
2023-09-01T05:26:15.279Z,3.17
2023-09-01T05:29:18.162Z,3.60
2023-09-01T05:32:21.671Z,3.58
2023-09-01T05:35:23.673Z,3.75
2023-09-01T05:38:25.793Z,3.65
2023-09-01T05:41:27.877Z,3.85
2023-09-01T05:44:30.164Z,3.92
2023-09-01T05:47:32.010Z,3.55
2023-09-01T05:50:34.223Z,4.20
2023-09-01T05:53:35.987Z,4.07
2023-09-01T05:56:37.932Z,2.95
2023-09-01T05:59:39.787Z,3.17
2023-09-01T06:02:41.793Z,3.30
2023-09-01T06:05:43.726Z,2.70
2023-09-01T06:08:46.591Z,3.00
2023-09-01T06:11:48.558Z,3.03
2023-09-01T06:14:50.706Z,3.03
2023-09-01T06:17:52.778Z,2.55
2023-09-01T06:20:54.614Z,2.30
2023-09-01T06:23:56.452Z,2.25
2023-09-01T06:26:58.775Z,2.13
2023-09-01T06:30:00.638Z,2.60
2023-09-01T06:33:02.861Z,2.42
2023-09-01T06:36:06.608Z,1.95
2023-09-01T06:39:08.738Z,2.10
2023-09-01T06:42:10.739Z,1.92
2023-09-01T06:45:12.616Z,1.70
2023-09-01T06:48:14.568Z,1.80
2023-09-01T06:51:16.860Z,1.67
2023-09-01T06:54:18.837Z,2.20
2023-09-01T06:57:20.725Z,1.90
2023-09-01T07:00:22.768Z,1.92
2023-09-01T07:03:24.585Z,2.05
2023-09-01T07:06:26.370Z,2.25
2023-09-01T07:09:28.247Z,2.50
2023-09-01T07:12:30.430Z,2.45
2023-09-01T07:15:32.318Z,2.55
2023-09-01T07:18:34.866Z,2.60
2023-09-01T07:21:36.721Z,2.90
2023-09-01T07:24:38.794Z,3.47
2023-09-01T07:27:41.255Z,3.15
2023-09-01T07:30:43.137Z,2.90
2023-09-01T07:33:45.074Z,2.58
2023-09-01T07:36:46.886Z,1.83
2023-09-01T07:39:48.717Z,2.40
2023-09-01T07:42:51.289Z,2.38
2023-09-01T07:45:53.120Z,1.80
2023-09-01T07:48:57.172Z,1.67
2023-09-01T07:51:58.970Z,2.00
2023-09-01T07:55:00.804Z,1.60
2023-09-01T07:58:02.927Z,1.67
2023-09-01T08:01:05.035Z,1.85
2023-09-01T08:04:08.555Z,2.03
2023-09-01T08:07:10.647Z,2.15
2023-09-01T08:10:12.810Z,1.98
2023-09-01T08:13:14.628Z,2.58
2023-09-01T08:16:19.580Z,2.65
2023-09-01T08:19:21.456Z,2.35
2023-09-01T08:22:23.525Z,2.90
2023-09-01T08:25:26.162Z,3.55
2023-09-01T08:28:28.312Z,3.45
2023-09-01T08:31:30.810Z,3.40
2023-09-01T08:34:33.138Z,3.90
2023-09-01T08:37:35.162Z,4.00
2023-09-01T08:40:37.066Z,4.55
2023-09-01T08:43:40.202Z,4.60
2023-09-01T08:46:54.342Z,4.78
2023-09-01T08:49:57.106Z,4.63
2023-09-01T08:53:03.265Z,4.50
2023-09-01T08:56:05.086Z,4.85
2023-09-01T08:59:07.135Z,7.15
2023-09-01T09:02:09.586Z,5.22
2023-09-01T09:05:14.429Z,5.03
2023-09-01T09:08:21.680Z,4.93
2023-09-01T09:11:23.869Z,5.00
2023-09-01T09:14:35.122Z,4.90
2023-09-01T09:17:46.745Z,4.72
2023-09-01T09:20:48.647Z,5.50
2023-09-01T09:23:50.671Z,4.50
2023-09-01T09:26:58.758Z,4.80
2023-09-01T09:30:01.062Z,4.22
2023-09-01T09:33:07.882Z,4.28
2023-09-01T09:36:10.119Z,4.25
2023-09-01T09:39:29.108Z,4.55
2023-09-01T09:42:40.259Z,4.32
2023-09-01T09:45:48.598Z,4.57
2023-09-01T09:48:51.375Z,4.88
2023-09-01T09:51:54.292Z,6.30
2023-09-01T09:55:13.046Z,4.70
2023-09-01T09:58:18.563Z,4.38
2023-09-01T10:05:47.720Z,4.20
2023-09-01T10:08:56.596Z,3.75
2023-09-01T10:16:59.253Z,6.47
2023-09-01T10:20:05.576Z,4.97
2023-09-01T10:23:12.957Z,4.35
2023-09-01T10:26:32.377Z,4.03
2023-09-01T10:30:02.037Z,4.18
2023-09-01T10:33:40.832Z,7.30
2023-09-01T10:36:45.784Z,3.90
2023-09-01T10:39:59.826Z,3.75
2023-09-01T10:43:02.262Z,3.58
2023-09-01T10:49:56.988Z,0.60
2023-09-01T10:53:33.217Z,19.20
2023-09-01T11:15:25.518Z,0.88
2023-09-01T11:19:37.612Z,0.30
2023-09-01T11:22:42.489Z,0.20
2023-09-01T11:26:17.037Z,0.30
2023-09-01T11:29:42.042Z,0.28
2023-09-01T11:32:43.956Z,0.50
2023-09-01T11:36:16.508Z,0.30
2023-09-01T12:09:22.677Z,0.22
2023-09-01T12:16:23.014Z,0.20
2023-09-01T12:36:27.176Z,0.35
2023-09-01T12:39:36.028Z,0.60
2023-09-01T12:42:38.248Z,0.30
2023-09-01T12:45:55.804Z,0.20
2023-09-01T12:48:58.193Z,0.20
2023-09-01T12:52:00.448Z,0.20
2023-09-01T12:55:02.234Z,0.30
2023-09-01T12:58:04.385Z,0.30
2023-09-01T13:01:07.394Z,0.20
2023-09-01T13:04:09.780Z,0.30
2023-09-01T13:07:16.289Z,0.20
2023-09-01T13:10:22.562Z,0.20
2023-09-01T13:13:24.663Z,0.20
2023-09-01T13:16:31.140Z,0.20
2023-09-01T13:19:32.960Z,0.30
2023-09-01T13:22:37.228Z,0.20
2023-09-01T13:25:40.389Z,0.30
2023-09-01T13:28:42.306Z,0.20
2023-09-01T13:31:44.174Z,0.20
2023-09-01T13:34:46.335Z,0.10
2023-09-01T13:37:48.416Z,0.20
2023-09-01T13:40:57.317Z,0.70
2023-09-01T13:43:59.273Z,0.50
2023-09-01T13:47:02.268Z,0.20
2023-09-01T13:50:04.779Z,0.20
2023-09-01T13:53:06.591Z,0.20
2023-09-01T13:56:08.466Z,0.20
2023-09-01T13:59:11.606Z,0.30
2023-09-01T14:02:13.402Z,0.30
2023-09-01T14:05:15.764Z,0.10
2023-09-01T14:08:17.903Z,0.10
2023-09-01T14:11:19.927Z,0.10
2023-09-01T14:14:22.304Z,0.10
2023-09-01T14:17:24.157Z,0.30
2023-09-01T14:20:27.970Z,0.20
2023-09-01T14:23:30.360Z,0.20
2023-09-01T14:26:32.903Z,0.30
2023-09-01T14:29:37.951Z,0.40
2023-09-01T14:32:39.836Z,0.35
2023-09-01T14:35:41.676Z,0.20
2023-09-01T14:38:43.599Z,0.20
2023-09-01T14:41:48.332Z,0.30
2023-09-01T14:44:50.383Z,0.15
2023-09-01T14:47:52.586Z,0.13
2023-09-01T14:50:54.365Z,0.20
2023-09-01T14:53:56.231Z,0.20
2023-09-01T14:56:57.983Z,0.20
2023-09-01T15:03:10.794Z,0.90
2023-09-01T15:06:12.814Z,0.30
2023-09-01T15:09:16.427Z,0.30
2023-09-01T15:12:18.590Z,0.28
2023-09-01T15:15:20.626Z,0.28
2023-09-01T15:18:22.409Z,0.40
2023-09-01T15:21:27.149Z,0.45
2023-09-01T15:24:29.118Z,0.20
2023-09-01T15:27:31.029Z,0.30
2023-09-01T15:30:33.622Z,0.40
2023-09-01T15:33:35.544Z,0.40
2023-09-01T15:36:44.008Z,0.50
2023-09-01T15:39:45.815Z,0.32
2023-09-01T15:42:47.634Z,0.30
2023-09-01T15:45:50.462Z,0.35
2023-09-01T15:48:52.361Z,0.30
2023-09-01T15:51:54.130Z,0.50
2023-09-01T15:54:56.085Z,0.45
2023-09-01T15:57:58.180Z,0.50
2023-09-01T16:01:14.286Z,0.52
2023-09-01T16:04:23.323Z,0.60
2023-09-01T16:07:25.230Z,0.77
2023-09-01T16:10:27.554Z,0.50
2023-09-01T16:13:29.720Z,0.60
2023-09-01T16:16:32.006Z,0.80
2023-09-01T16:19:33.839Z,0.70
2023-09-01T16:22:35.800Z,0.60
2023-09-01T16:25:37.759Z,0.50
2023-09-01T16:28:39.782Z,0.70
2023-09-01T16:31:41.750Z,0.45
2023-09-01T16:34:43.619Z,0.70
2023-09-01T16:37:46.415Z,0.70
2023-09-01T16:40:51.615Z,0.63
2023-09-01T16:43:53.716Z,0.70
2023-09-01T16:46:56.003Z,0.85
2023-09-01T16:49:57.965Z,0.57
2023-09-01T16:53:00.980Z,0.80
2023-09-01T16:56:02.883Z,0.82
2023-09-01T16:59:04.796Z,0.60
2023-09-01T17:02:07.347Z,0.80
2023-09-01T17:05:09.314Z,1.00
2023-09-01T17:08:11.239Z,1.10
2023-09-01T17:11:13.103Z,0.90
2023-09-01T17:14:15.114Z,1.13
2023-09-01T17:17:16.996Z,0.80
2023-09-01T17:20:20.072Z,1.10
2023-09-01T17:23:22.025Z,1.27
2023-09-01T17:26:23.919Z,1.20
2023-09-01T17:29:25.858Z,0.95
2023-09-01T17:32:30.827Z,0.90
2023-09-01T17:35:32.657Z,1.25
2023-09-01T17:38:34.449Z,1.15
2023-09-01T17:41:38.184Z,0.88
2023-09-01T17:44:41.581Z,1.23
2023-09-01T17:50:45.842Z,1.20
2023-09-01T17:53:48.105Z,1.10
2023-09-01T17:56:50.069Z,1.13
2023-09-01T17:59:52.383Z,1.38
2023-09-01T18:02:57.633Z,1.30
2023-09-01T18:05:59.750Z,1.30
2023-09-01T18:09:01.852Z,1.63
2023-09-01T18:12:04.754Z,1.20
2023-09-01T18:15:07.308Z,1.42
2023-09-01T18:18:09.098Z,3.13
2023-09-01T18:21:12.799Z,2.55
2023-09-01T18:24:15.689Z,2.72
2023-09-01T18:27:28.195Z,2.08
2023-09-01T18:30:30.777Z,2.00
2023-09-01T18:33:35.112Z,2.00
2023-09-01T18:36:40.114Z,1.80
2023-09-01T18:39:52.747Z,1.70
2023-09-01T18:42:55.262Z,2.00
2023-09-01T18:45:57.318Z,2.00
2023-09-01T18:49:10.899Z,2.00
2023-09-01T18:55:17.671Z,1.85
2023-09-01T18:58:19.788Z,2.30
2023-09-01T19:01:27.520Z,1.92
2023-09-01T19:04:29.620Z,2.53
2023-09-01T19:07:31.923Z,1.92
2023-09-01T19:10:35.133Z,2.17
2023-09-01T19:13:38.531Z,2.45
2023-09-01T19:19:44.301Z,2.38
2023-09-01T19:22:46.205Z,2.05
2023-09-01T19:25:48.828Z,2.85
2023-09-01T19:28:51.528Z,2.78
2023-09-01T19:31:53.583Z,2.60
2023-09-01T19:34:58.419Z,2.60
2023-09-01T19:38:00.407Z,2.58
2023-09-01T19:41:02.197Z,2.72
2023-09-01T19:44:11.697Z,2.78
2023-09-01T19:47:23.892Z,2.78
2023-09-01T19:50:27.785Z,2.88
2023-09-01T19:53:31.487Z,2.67
2023-09-01T19:56:34.802Z,2.60
2023-09-01T20:02:39.070Z,2.53
2023-09-01T20:05:42.375Z,3.20
2023-09-01T20:08:44.510Z,3.13
2023-09-01T20:11:46.776Z,2.78
2023-09-01T20:14:49.785Z,2.80
2023-09-01T20:17:53.861Z,2.85
2023-09-01T20:20:55.761Z,3.10
2023-09-01T20:23:57.580Z,2.88
2023-09-01T20:26:59.472Z,2.70
2023-09-01T20:30:01.258Z,3.00
2023-09-01T20:33:03.519Z,3.00
2023-09-01T20:36:05.716Z,2.78
2023-09-01T20:39:07.483Z,2.80
2023-09-01T20:42:10.987Z,3.40
2023-09-01T20:45:13.014Z,3.65
2023-09-01T20:48:14.906Z,3.67
2023-09-01T20:51:16.769Z,4.40
2023-09-01T20:54:19.201Z,4.80
2023-09-01T20:57:21.065Z,3.53
2023-09-01T21:00:27.094Z,3.70
2023-09-01T21:03:29.340Z,3.20
2023-09-01T21:06:31.091Z,3.17
2023-09-01T21:09:33.183Z,3.35
2023-09-01T21:12:35.644Z,3.03
2023-09-01T21:15:37.487Z,2.87
2023-09-01T21:18:39.361Z,3.45
2023-09-01T21:21:41.367Z,2.75
2023-09-01T21:24:43.387Z,3.30
2023-09-01T21:27:45.387Z,2.80
2023-09-01T21:30:50.309Z,2.83
2023-09-01T21:33:52.166Z,2.47
2023-09-01T21:36:54.518Z,2.47
2023-09-01T21:39:56.615Z,3.00
2023-09-01T21:42:58.394Z,2.97
2023-09-01T21:46:00.360Z,2.60
2023-09-01T21:49:02.402Z,2.25
2023-09-01T21:52:04.648Z,2.45
2023-09-01T21:55:07.141Z,2.17
2023-09-01T21:58:09.060Z,2.10
2023-09-01T22:01:11.503Z,2.40
2023-09-01T22:04:13.505Z,2.10
2023-09-01T22:07:15.279Z,2.40
2023-09-01T22:10:17.204Z,2.00
2023-09-01T22:13:19.182Z,2.13
2023-09-01T22:16:22.170Z,2.25
2023-09-01T22:19:23.971Z,2.50
2023-09-01T22:22:26.104Z,1.95
2023-09-01T22:25:27.884Z,2.13
2023-09-01T22:28:29.963Z,2.30
2023-09-01T22:31:32.093Z,2.50
2023-09-01T22:34:33.891Z,2.25
2023-09-01T22:37:36.140Z,2.85
2023-09-01T22:40:37.929Z,2.38
2023-09-01T22:43:41.337Z,2.97
2023-09-01T22:49:44.902Z,2.30
2023-09-01T22:52:47.110Z,2.58
2023-09-01T22:55:48.933Z,2.58
2023-09-01T22:58:50.807Z,2.75
2023-09-01T23:01:52.787Z,2.53
2023-09-01T23:04:56.091Z,2.92
2023-09-01T23:11:03.777Z,2.67
2023-09-01T23:14:05.657Z,2.58
2023-09-01T23:17:07.415Z,2.60
2023-09-01T23:20:09.677Z,2.80
2023-09-01T23:23:11.671Z,2.40
2023-09-01T23:26:13.721Z,2.42
2023-09-01T23:29:18.621Z,3.00
2023-09-01T23:32:20.535Z,2.70
2023-09-01T23:35:22.433Z,2.90
2023-09-01T23:38:24.366Z,3.28
2023-09-01T23:41:26.129Z,2.88
2023-09-01T23:44:28.285Z,2.90
2023-09-01T23:47:30.422Z,2.60
2023-09-01T23:50:32.247Z,2.28
2023-09-01T23:53:34.062Z,2.70
2023-09-01T23:56:35.838Z,2.70
2023-09-01T23:59:37.894Z,2.72
